Data for 09/20/2013

Time Sea-Level Adjusted Pressure Absolute Pressure Temperature Relative Humidity Dew Point   
(mb) (inHg) (mb) (inHg) (C) (F) (%) (C) (F)
00:05 1021 30.15 850 25.1 7.6 45.8 62 0.8 33.4
00:10 1021 30.15 850 25.1 7.7 45.8 62 0.8 33.5
00:15 1021 30.15 850 25.1 7.6 45.6 62 0.8 33.4
00:20 1021 30.15 850 25.1 7.5 45.6 62 0.8 33.4
00:25 1021 30.15 850 25.1 7.5 45.5 63 0.9 33.6
00:30 1021 30.15 850 25.1 7.4 45.2 63 0.9 33.6
00:35 1021 30.15 850 25.1 7.2 44.9 64 0.8 33.5
00:40 1021 30.15 850 25.1 7.3 45.1 63 0.7 33.2
00:45 1021 30.15 850 25.1 7.3 45.1 62 0.6 33.1
00:50 1021 30.15 850 25.1 7.1 44.8 64 0.7 33.3
00:55 1021 30.15 850 25.1 6.9 44.4 64 0.6 33.1
01:00 1021 30.15 850 25.1 6.7 44 65 0.6 33
01:05 1021 30.15 850 25.1 6.6 43.8 65 0.4 32.7
01:10 1021 30.15 850 25.1 6.8 44.3 63 0.2 32.4
01:15 1021 30.15 850 25.1 7.2 44.9 62 0.5 32.9
01:20 1021 30.15 850 25.1 7.1 44.9 62 0.4 32.7
01:25 1021 30.15 850 25.1 7.2 45 62 0.4 32.8
01:30 1021 30.15 850 25.1 7.4 45.3 61 0.4 32.7
01:35 1021 30.15 850 25.1 7.5 45.5 61 0.4 32.7
01:40 1021 30.15 850 25.1 7.6 45.6 60 0.2 32.4
01:45 1021 30.15 850 25.1 7.7 45.8 60 0.3 32.6
01:50 1021 30.15 850 25.1 7.4 45.4 61 0.4 32.7
01:55 1021 30.15 850 25.1 7.3 45.1 60 0.1 32.3
02:00 1021 30.15 850 25.1 7.4 45.3 61 0.3 32.5
02:05 1021 30.15 850 25.1 7.4 45.4 60 0.2 32.3
02:10 1021 30.15 850 25.1 7.4 45.4 60 0.3 32.5
02:15 1020 30.12 850 25.1 7.3 45.2 61 0.3 32.5
02:20 1020 30.12 850 25.1 7.2 45 62 0.4 32.7
02:25 1020 30.12 850 25.1 6.9 44.5 62 0.1 32.3
02:30 1020 30.12 850 25.1 6.9 44.4 62 0.1 32.1
02:35 1021 30.15 850 25.1 7 44.5 61 -0.1 31.9
02:40 1021 30.15 850 25.1 7 44.7 61 0.1 32.2
02:45 1021 30.15 850 25.1 6.9 44.5 61 0 32.1
02:50 1021 30.15 850 25.1 6.8 44.2 62 0.1 32.1
02:55 1021 30.15 850 25.1 6.5 43.7 63 0 32.1
03:00 1020 30.12 850 25.1 6.2 43.1 63 -0.3 31.4
03:05 1020 30.12 850 25.1 6.2 43.1 63 -0.4 31.3
03:10 1020 30.12 850 25.1 6.1 43 62 -0.6 31
03:15 1020 30.12 850 25.1 6.3 43.4 61 -0.7 30.8
03:20 1020 30.12 850 25.1 6.4 43.5 62 -0.5 31.2
03:25 1020 30.12 850 25.1 6.2 43.2 62 -0.4 31.3
03:30 1020 30.12 850 25.1 6.2 43.1 62 -0.5 31.2
03:35 1020 30.12 849 25.07 6.3 43.3 61 -0.6 30.9
03:40 1020 30.12 850 25.1 6.4 43.6 62 -0.4 31.3
03:45 1020 30.12 850 25.1 6.3 43.3 62 -0.4 31.2
03:50 1020 30.12 850 25.1 6 42.7 62 -0.7 30.7
03:55 1020 30.12 849 25.07 6.2 43.1 62 -0.6 30.9
04:00 1020 30.12 849 25.07 6.2 43.1 62 -0.5 31
04:05 1020 30.12 849 25.07 6 42.8 63 -0.6 30.9
04:10 1020 30.12 849 25.07 6.3 43.3 61 -0.6 30.9
04:15 1020 30.12 849 25.07 6.3 43.4 61 -0.6 30.8
04:20 1020 30.12 849 25.07 6 42.9 62 -0.6 31
04:25 1020 30.12 849 25.07 5.7 42.3 62 -1 30.2
04:30 1020 30.12 849 25.07 5.8 42.4 62 -0.8 30.5
04:35 1020 30.12 849 25.07 5.7 42.2 62 -1 30.3
04:40 1020 30.12 849 25.07 5.8 42.4 62 -1 30.1
04:45 1020 30.12 849 25.07 5.8 42.5 61 -1.1 30.1
04:50 1020 30.12 849 25.07 5.6 42.2 61 -1.2 29.8
04:55 1020 30.12 849 25.07 5.7 42.3 60 -1.5 29.3
05:00 1020 30.12 849 25.07 5.9 42.7 58 -1.7 28.9
05:05 1020 30.12 849 25.07 5.7 42.2 60 -1.4 29.4
05:10 1020 30.12 849 25.07 5 40.9 62 -1.6 29.1
05:15 1020 30.12 849 25.07 4.9 40.7 60 -2.3 27.8
05:20 1020 30.12 849 25.07 5.1 41.2 60 -1.9 28.5
05:25 1020 30.12 849 25.07 5.1 41.3 60 -2 28.5
05:30 1020 30.12 849 25.07 4.9 40.9 62 -1.7 28.9
05:35 1020 30.12 849 25.07 4.7 40.4 62 -1.9 28.7
05:40 1020 30.12 849 25.07 4.8 40.6 62 -1.9 28.6
05:45 1020 30.12 849 25.07 4.7 40.4 62 -2 28.3
05:50 1020 30.12 849 25.07 4.7 40.4 60 -2.4 27.7
05:55 1020 30.12 849 25.07 4.5 40.1 65 -1.5 29.3
06:00 1020 30.12 849 25.07 3.9 39.1 67 -1.6 29
06:05 1020 30.12 849 25.07 4.3 39.8 64 -1.9 28.5
06:10 1020 30.12 849 25.07 4.7 40.5 64 -1.6 29.2
06:15 1020 30.12 849 25.07 4.8 40.6 64 -1.5 29.2
06:20 1020 30.12 849 25.07 5 41 63 -1.4 29.5
06:25 1020 30.12 849 25.07 5.5 41.8 62 -1.3 29.6
06:30 1020 30.12 849 25.07 5.7 42.3 59 -1.5 29.2
06:35 1020 30.12 849 25.07 5.9 42.6 61 -1.1 30
06:40 1020 30.12 849 25.07 5.5 41.9 63 -1.1 30.1
06:45 1020 30.12 849 25.07 5.3 41.6 62 -1.4 29.5
06:50 1020 30.12 849 25.07 5.3 41.6 61 -1.5 29.3
06:55 1020 30.12 849 25.07 5.3 41.6 60 -1.7 28.9
07:00 1020 30.12 849 25.07 5.6 42.1 59 -1.8 28.8
07:05 1020 30.12 849 25.07 6.1 43 58 -1.6 29.1
07:10 1020 30.12 849 25.07 6.5 43.7 57 -1.4 29.5
07:15 1020 30.12 849 25.07 7 44.6 55 -1.3 29.7
07:20 1020 30.12 849 25.07 7.1 44.8 55 -1.3 29.7
07:25 1020 30.12 849 25.07 7.1 44.7 56 -1.1 30
07:30 1020 30.12 849 25.07 7.4 45.3 55 -0.9 30.3
07:35 1020 30.12 849 25.07 7.6 45.7 49 -2.5 27.5
07:40 1020 30.12 849 25.07 8 46.4 48 -2.4 27.7
07:45 1020 30.12 849 25.07 8.4 47.2 49 -1.7 28.9
07:50 1020 30.12 849 25.07 8.8 47.8 50 -1.1 30.1
07:55 1020 30.12 849 25.07 9.2 48.5 50 -0.6 31
08:00 1020 30.12 849 25.07 9.6 49.2 48 -0.8 30.5
08:05 1020 30.12 849 25.07 9.6 49.3 48 -0.7 30.7
08:10 1020 30.12 849 25.07 9.9 49.8 47 -0.9 30.4
08:15 1020 30.12 849 25.07 9.7 49.4 46 -1.4 29.5
08:20 1020 30.12 849 25.07 9.9 49.8 45 -1.5 29.2
08:25 1020 30.12 849 25.07 10.1 50.2 45 -1.3 29.6
08:30 1020 30.12 849 25.07 10.3 50.5 44 -1.4 29.5
08:35 1020 30.12 849 25.07 10.8 51.4 44 -1 30.2
08:40 1020 30.12 849 25.07 11 51.8 45 -0.4 31.3
08:45 1020 30.12 849 25.07 11.4 52.4 41 -1.4 29.5
08:50 1020 30.12 849 25.07 12.2 53.9 39 -1.3 29.7
08:55 1020 30.12 849 25.07 12.5 54.6 40 -0.8 30.6
09:00 1020 30.12 849 25.07 12.4 54.2 38 -1.6 29.2
09:05 1020 30.12 849 25.07 12.3 54.2 39 -1.3 29.7
09:10 1019 30.09 849 25.07 12.4 54.3 39 -1.1 30
09:15 1019 30.09 849 25.07 12.7 54.8 37 -1.6 29.1
09:20 1019 30.09 849 25.07 13.2 55.7 36 -1.4 29.4
09:25 1019 30.09 849 25.07 13.9 57.1 35 -1 30.2
09:30 1019 30.09 849 25.07 14.4 58 34 -1 30.2
09:35 1019 30.09 849 25.07 14.6 58.4 34 -0.9 30.4
09:40 1019 30.09 848 25.04 14.9 58.9 34 -0.8 30.6
09:45 1019 30.09 848 25.04 15 58.9 37 0.3 32.6
09:50 1019 30.09 848 25.04 15.2 59.3 34 -0.5 31.1
09:55 1019 30.09 848 25.04 15.1 59.1 35 -0 32
10:00 1019 30.09 848 25.04 15.5 60 36 0.5 32.9
10:05 1019 30.09 848 25.04 15.2 59.4 39 1.6 34.9
10:10 1019 30.09 848 25.04 15.6 60 36 0.8 33.4
10:15 1019 30.09 848 25.04 15.6 60.1 37 1.1 34
10:20 1019 30.09 848 25.04 16 60.7 36 0.9 33.7
10:25 1019 30.09 848 25.04 15.8 60.5 36 0.8 33.5
10:30 1019 30.09 848 25.04 16.3 61.3 37 1.9 35.4
10:35 1019 30.09 848 25.04 16.1 61 37 1.4 34.4
10:40 1019 30.09 848 25.04 16.3 61.3 36 1.4 34.4
10:45 1018 30.06 848 25.04 16 60.7 38 1.6 34.9
10:50 1018 30.06 848 25.04 16.2 61.1 36 1.4 34.4
10:55 1018 30.06 848 25.04 17 62.5 35 1.5 34.6
11:00 1018 30.06 848 25.04 17.5 63.6 34 1.6 34.9
11:05 1018 30.06 848 25.04 17.4 63.2 34 1.4 34.6
11:10 1018 30.06 847 25.01 16.6 61.9 37 1.8 35.2
11:15 1018 30.06 847 25.01 16.4 61.4 35 0.8 33.5
11:20 1018 30.06 847 25.01 17.7 63.8 33 1.3 34.3
11:25 1018 30.06 847 25.01 18.4 65.1 32 1.4 34.4
11:30 1018 30.06 847 25.01 18.1 64.6 33 1.5 34.7
11:35 1018 30.06 847 25.01 17.6 63.6 33 1.3 34.3
11:40 1018 30.06 847 25.01 16.9 62.4 35 1.6 34.8
11:45 1018 30.06 847 25.01 17.8 64 33 1.5 34.6
11:50 1018 30.06 847 25.01 17.7 63.8 35 2 35.6
11:55 1018 30.06 847 25.01 18.2 64.7 33 1.8 35.2
12:00 1017 30.03 847 25.01 17.4 63.3 35 1.7 35.1
12:05 1017 30.03 847 25.01 17.5 63.6 33 1.4 34.4
12:10 1017 30.03 846 24.98 17.9 64.1 31 0.8 33.5
12:15 1017 30.03 846 24.98 18.3 64.9 33 1.9 35.5
12:20 1017 30.03 846 24.98 18.1 64.6 31 0.8 33.4
12:25 1017 30.03 846 24.98 19.1 66.3 30 1.4 34.5
12:30 1017 30.03 846 24.98 19.9 67.9 28 1.2 34.2
12:35 1017 30.03 846 24.98 19.5 67.1 27 -0.1 31.9
12:40 1017 30.03 846 24.98 19.9 67.8 27 0.6 33.2
12:45 1017 30.03 846 24.98 20.9 69.5 25 0.1 32.2
12:50 1017 30.03 846 24.98 21.1 69.9 23 -0.6 31
12:55 1016 30 846 24.98 21.5 70.7 25 1.1 33.9
13:00 1016 30 845 24.95 21.5 70.6 23 -0.5 31
13:05 1016 30 845 24.95 21.9 71.4 24 0.8 33.5
13:10 1016 30 845 24.95 21.8 71.2 24 0.4 32.7
13:15 1016 30 845 24.95 21.8 71.3 25 0.9 33.6
13:20 1016 30 845 24.95 21.6 70.8 24 0.5 32.9
13:25 1016 30 845 24.95 21.4 70.5 24 -0 32
13:30 1016 30 845 24.95 22 71.6 22 -0.3 31.4
13:35 1016 30 845 24.95 22 71.6 22 -0.3 31.5
13:40 1016 30 845 24.95 21.9 71.4 22 -0.5 31.1
13:45 1016 30 845 24.95 21.9 71.5 21 -0.9 30.4
13:50 1016 30 845 24.95 20.5 68.9 22 -1.7 28.9
13:55 1016 30 845 24.95 20.5 68.9 23 -1.4 29.6
14:00 1016 30 845 24.95 21.4 70.6 21 -1.3 29.6
14:05 1016 30 845 24.95 21.8 71.2 21 -1.3 29.7
14:10 1016 30 845 24.95 22 71.5 20 -1.6 29.2
14:15 1016 30 845 24.95 22.2 71.9 20 -1.7 29
14:20 1016 30 845 24.95 22.3 72.1 20 -1.8 28.7
14:25 1015 29.97 845 24.95 22.6 72.7 19 -1.8 28.8
14:30 1015 29.97 845 24.95 23.2 73.8 18 -2.2 28
14:35 1015 29.97 845 24.95 23.6 74.4 17 -2.6 27.4
14:40 1015 29.97 845 24.95 23.5 74.3 17 -2.8 27
14:45 1015 29.97 845 24.95 23.2 73.7 18 -1.9 28.5
14:50 1015 29.97 844 24.92 23.1 73.6 17 -3.1 26.4
14:55 1015 29.97 844 24.92 23.3 74 17 -3 26.5
15:00 1015 29.97 844 24.92 22.5 72.5 18 -2.8 26.9
15:05 1015 29.97 844 24.92 22.2 72 18 -3.1 26.4
15:10 1015 29.97 844 24.92 22.1 71.7 18 -3.3 26.1
15:15 1015 29.97 844 24.92 22 71.5 18 -3.2 26.2
15:20 1015 29.97 844 24.92 23.1 73.5 17 -2.8 26.9
15:25 1015 29.97 844 24.92 23.7 74.6 17 -2.4 27.7
15:30 1015 29.97 844 24.92 24.2 75.5 15 -4 24.8
15:35 1015 29.97 844 24.92 23.2 73.8 17 -2.8 27
15:40 1015 29.97 844 24.92 23 73.5 17 -3 26.6
15:45 1015 29.97 844 24.92 22.7 72.9 14 -5.5 22.1
15:50 1014 29.94 844 24.92 22.2 72 15 -5.1 22.8
15:55 1014 29.94 844 24.92 22.2 72 17 -4.1 24.7
16:00 1014 29.94 843 24.89 22.3 72.2 17 -3.8 25.1
16:05 1014 29.94 843 24.89 23.3 73.9 15 -4.3 24.3
16:10 1014 29.94 843 24.89 23.8 74.8 16 -3.3 26
16:15 1014 29.94 843 24.89 24.2 75.5 15 -3.5 25.7
16:20 1014 29.94 843 24.89 24.1 75.3 16 -2.8 27
16:25 1014 29.94 843 24.89 23.3 74 17 -2.7 27.2
16:30 1014 29.94 843 24.89 23.4 74.1 16 -4 24.8
16:35 1014 29.94 843 24.89 23.8 74.8 16 -3.6 25.5
16:40 1014 29.94 843 24.89 24 75.2 15 -3.9 24.9
16:45 1014 29.94 843 24.89 24 75.2 15 -3.7 25.4
16:50 1014 29.94 843 24.89 23.8 74.8 18 -2 28.4
16:55 1014 29.94 843 24.89 23.5 74.3 17 -2.5 27.6
17:00 1014 29.94 843 24.89 23.6 74.5 16 -3.9 25
17:05 1014 29.94 843 24.89 23.6 74.4 17 -3 26.5
17:10 1014 29.94 843 24.89 23.7 74.7 16 -3.6 25.5
17:15 1014 29.94 843 24.89 23.7 74.6 16 -3.1 26.4
17:20 1014 29.94 843 24.89 23.7 74.7 17 -2.8 26.9
17:25 1014 29.94 843 24.89 23.2 73.8 17 -2.7 27.2
17:30 1014 29.94 843 24.89 22.2 72 18 -2.7 27.1
17:35 1014 29.94 843 24.89 22 71.6 19 -2.2 28.1
17:40 1014 29.94 843 24.89 21.8 71.2 18 -3.2 26.3
17:45 1014 29.94 843 24.89 21.6 70.8 20 -2.5 27.6
17:50 1013 29.91 843 24.89 21.4 70.5 22 -0.8 30.6
17:55 1013 29.91 843 24.89 21 69.9 23 -0.5 31
18:00 1013 29.91 843 24.89 20.9 69.6 28 2.1 35.8
18:05 1013 29.91 843 24.89 20.5 68.8 31 3.1 37.7
18:10 1013 29.91 842 24.86 20.1 68.1 32 2.9 37.1
18:15 1013 29.91 842 24.86 19.8 67.6 30 1.7 35
18:20 1013 29.91 842 24.86 19.3 66.7 33 2.6 36.7
18:25 1013 29.91 842 24.86 18.4 65.1 38 3.8 38.9
18:30 1013 29.91 842 24.86 17.6 63.7 39 3.5 38.3
18:35 1013 29.91 843 24.89 17.2 63 40 3.6 38.6
18:40 1013 29.91 843 24.89 16.5 61.7 43 3.9 39.1
18:45 1013 29.91 843 24.89 16.1 61 43 3.8 38.8
18:50 1013 29.91 843 24.89 15.8 60.4 45 3.9 39
18:55 1013 29.91 843 24.89 15.3 59.6 48 4.4 39.9
19:00 1013 29.91 843 24.89 14.7 58.5 48 4 39.2
19:05 1014 29.94 843 24.89 14.8 58.7 53 5.4 41.6
19:10 1014 29.94 843 24.89 14.8 58.6 50 4.5 40.1
19:15 1014 29.94 843 24.89 14.1 57.4 48 3.3 37.9
19:20 1014 29.94 843 24.89 14.1 57.4 48 3.4 38.1
19:25 1014 29.94 843 24.89 13.7 56.6 47 2.7 36.8
19:30 1014 29.94 843 24.89 13.4 56.1 50 3.4 38.1
19:35 1014 29.94 843 24.89 13.4 56.1 43 1 33.9
19:40 1014 29.94 843 24.89 14.2 57.6 40 0.9 33.6
19:45 1014 29.94 843 24.89 14.6 58.4 38 0.6 33
19:50 1014 29.94 843 24.89 14.8 58.6 37 0.2 32.3
19:55 1014 29.94 843 24.89 14.9 58.7 37 0.5 32.8
20:00 1014 29.94 843 24.89 14.5 58.2 34 -1.2 29.9
20:05 1014 29.94 843 24.89 14.7 58.5 31 -1.9 28.5
20:10 1014 29.94 843 24.89 14.2 57.6 34 -1.4 29.5
20:15 1014 29.94 843 24.89 14 57.2 34 -1.7 29
20:20 1014 29.94 843 24.89 14.1 57.3 33 -1.9 28.5
20:25 1014 29.94 843 24.89 14.2 57.6 32 -2.2 28.1
20:30 1014 29.94 843 24.89 14.1 57.3 31 -2.5 27.4
20:35 1014 29.94 843 24.89 14 57.2 32 -2.3 27.9
20:40 1014 29.94 843 24.89 13.9 57 32 -2.5 27.4
20:45 1014 29.94 843 24.89 13.9 57.1 30 -3.3 26
20:50 1014 29.94 843 24.89 13.9 57.1 30 -3.5 25.8
20:55 1014 29.94 843 24.89 14.1 57.3 29 -3.8 25.2
21:00 1014 29.94 843 24.89 14.5 58 26 -4.7 23.6
21:05 1014 29.94 843 24.89 14.8 58.6 25 -4.8 23.4
21:10 1014 29.94 843 24.89 14.5 58.2 26 -4.6 23.7
21:15 1014 29.94 843 24.89 14.2 57.5 26 -5.1 22.9
21:20 1014 29.94 843 24.89 14.1 57.4 26 -5 23
21:25 1014 29.94 843 24.89 13.7 56.7 26 -5.2 22.7
21:30 1014 29.94 843 24.89 13.4 56.1 25 -5.9 21.3
21:35 1014 29.94 843 24.89 13.8 56.9 26 -5.5 22.1
21:40 1014 29.94 843 24.89 13.5 56.4 27 -5 23
21:45 1014 29.94 843 24.89 13.1 55.6 26 -5.7 21.8
21:50 1014 29.94 843 24.89 13.2 55.8 26 -5.7 21.7
21:55 1014 29.94 843 24.89 13.3 55.9 26 -5.7 21.8
22:00 1014 29.94 843 24.89 13.1 55.5 26 -6.1 21
22:05 1014 29.94 843 24.89 12.9 55.2 26 -6.1 20.9
22:10 1014 29.94 843 24.89 13 55.5 24 -7 19.5
22:15 1013 29.91 843 24.89 13.8 56.9 24 -6.3 20.7
22:20 1013 29.91 843 24.89 13.1 55.5 26 -6 21.2
22:25 1014 29.94 843 24.89 12.5 54.5 27 -5.9 21.3
22:30 1013 29.91 843 24.89 12.5 54.5 28 -5.5 22.2
22:35 1013 29.91 843 24.89 12.4 54.4 27 -6.1 20.9
22:40 1013 29.91 843 24.89 12.5 54.5 27 -6 21.2
22:45 1013 29.91 843 24.89 12.5 54.4 26 -6.6 20.1
22:50 1013 29.91 843 24.89 12.4 54.4 26 -6.3 20.7
22:55 1013 29.91 842 24.86 12.4 54.3 27 -5.9 21.3
23:00 1013 29.91 842 24.86 12.3 54.2 27 -6.3 20.7
23:05 1013 29.91 842 24.86 12.6 54.7 24 -7.2 19
23:10 1013 29.91 842 24.86 12.8 55.1 25 -6.5 20.4
23:15 1013 29.91 842 24.86 12.6 54.7 26 -6.3 20.6
23:20 1013 29.91 842 24.86 12.7 54.8 26 -6.3 20.6
23:25 1013 29.91 842 24.86 12.5 54.5 27 -5.9 21.4
23:30 1013 29.91 842 24.86 12.5 54.5 24 -7.3 18.8
23:35 1013 29.91 842 24.86 12.7 54.9 26 -6.4 20.4
23:40 1013 29.91 842 24.86 12.5 54.4 27 -6.1 21
23:45 1013 29.91 842 24.86 12.3 54.1 27 -6.3 20.7
23:50 1013 29.91 842 24.86 12.6 54.6 27 -6 21.2
23:55 1013 29.91 842 24.86 12.4 54.2 27 -6 21.1
24:00 1013 29.91 842 24.86 12 53.6 29 -5.5 22.1